createdAt,value
2019-06-26T00:00:46.414Z,53.80
2019-06-26T00:03:15.859Z,53.80
2019-06-26T00:05:44.700Z,53.90
2019-06-26T00:08:32.963Z,53.80
2019-06-26T00:11:02.107Z,54.00
2019-06-26T00:13:31.540Z,54.20
2019-06-26T00:16:00.816Z,54.50
2019-06-26T00:18:29.876Z,54.60
2019-06-26T00:20:58.924Z,54.80
2019-06-26T00:23:28.371Z,54.90
2019-06-26T00:25:57.326Z,54.80
2019-06-26T00:28:26.655Z,55.00
2019-06-26T00:30:56.043Z,54.80
2019-06-26T00:33:24.817Z,54.90
2019-06-26T00:35:53.610Z,54.70
2019-06-26T00:38:22.542Z,54.90
2019-06-26T00:40:51.415Z,55.20
2019-06-26T00:43:20.492Z,55.30
2019-06-26T00:45:49.275Z,55.40
2019-06-26T00:48:18.052Z,55.30
2019-06-26T00:50:47.935Z,55.10
2019-06-26T00:53:16.754Z,54.60
2019-06-26T00:55:45.762Z,54.90
2019-06-26T00:58:33.808Z,54.60
2019-06-26T01:01:02.796Z,54.60
2019-06-26T01:03:31.739Z,54.70
2019-06-26T01:06:01.488Z,54.50
2019-06-26T01:08:31.002Z,54.60
2019-06-26T01:11:00.607Z,55.00
2019-06-26T01:13:29.894Z,54.90
2019-06-26T01:15:58.707Z,55.00
2019-06-26T01:18:46.851Z,55.00
2019-06-26T01:21:35.299Z,54.90
2019-06-26T01:24:04.612Z,55.00
2019-06-26T01:26:53.199Z,55.10
2019-06-26T01:29:22.395Z,55.10
2019-06-26T01:31:51.184Z,55.40
2019-06-26T01:34:20.678Z,55.50
2019-06-26T01:37:08.733Z,55.70
2019-06-26T01:39:37.974Z,55.60
2019-06-26T01:42:26.133Z,55.80
2019-06-26T01:44:55.440Z,55.70
2019-06-26T01:47:24.949Z,55.50
2019-06-26T01:49:53.723Z,55.80
2019-06-26T01:52:22.948Z,56.30
2019-06-26T01:54:52.144Z,56.10
2019-06-26T01:57:40.523Z,56.10
2019-06-26T02:00:28.893Z,56.20
2019-06-26T02:03:17.186Z,56.10
2019-06-26T02:05:58.320Z,56.20
2019-06-26T02:08:39.334Z,56.20
2019-06-26T02:11:20.023Z,56.50
2019-06-26T02:17:19.681Z,56.60
2019-06-26T02:20:00.896Z,56.50
2019-06-26T02:22:29.717Z,56.80
2019-06-26T02:24:59.124Z,56.80
2019-06-26T02:27:47.440Z,56.80
2019-06-26T02:30:36.021Z,57.10
2019-06-26T02:33:04.784Z,57.10
2019-06-26T02:35:56.174Z,57.20
2019-06-26T02:38:25.458Z,57.10
2019-06-26T02:40:54.613Z,57.10
2019-06-26T02:43:23.972Z,57.20
2019-06-26T02:45:53.299Z,57.20
2019-06-26T02:48:22.872Z,57.40
2019-06-26T02:50:51.600Z,57.40
2019-06-26T02:53:20.420Z,57.50
2019-06-26T02:55:49.440Z,57.40
2019-06-26T02:58:18.237Z,57.50
2019-06-26T03:00:47.172Z,57.70
2019-06-26T03:03:16.145Z,57.70
2019-06-26T03:05:45.140Z,57.90
2019-06-26T03:08:14.540Z,57.90
2019-06-26T03:10:43.876Z,57.90
2019-06-26T03:13:12.878Z,58.00
2019-06-26T03:15:42.203Z,58.40
2019-06-26T03:18:10.935Z,58.60
2019-06-26T03:20:59.195Z,59.00
2019-06-26T03:23:47.520Z,58.90
2019-06-26T03:26:35.543Z,58.70
2019-06-26T03:29:23.543Z,58.90
2019-06-26T03:32:11.585Z,59.60
2019-06-26T03:34:59.672Z,59.80
2019-06-26T03:37:48.031Z,59.80
2019-06-26T03:40:36.383Z,60.40
2019-06-26T03:43:05.396Z,59.90
2019-06-26T03:45:53.677Z,60.10
2019-06-26T03:48:42.289Z,59.70
2019-06-26T03:51:30.366Z,59.60
2019-06-26T03:53:59.694Z,60.30
2019-06-26T03:56:29.200Z,60.10
2019-06-26T03:58:58.438Z,59.90
2019-06-26T04:01:49.613Z,59.90
2019-06-26T04:04:37.649Z,59.50
2019-06-26T04:07:06.409Z,60.20
2019-06-26T04:09:35.535Z,60.70
2019-06-26T04:12:23.687Z,59.70
2019-06-26T04:14:52.807Z,59.40
2019-06-26T04:17:40.872Z,59.80
2019-06-26T04:20:29.230Z,59.20
2019-06-26T04:22:58.266Z,59.20
2019-06-26T04:25:47.253Z,58.80
2019-06-26T04:28:35.859Z,58.60
2019-06-26T04:31:26.264Z,59.70
2019-06-26T04:33:55.053Z,60.60
2019-06-26T04:36:43.332Z,61.20
2019-06-26T04:39:31.440Z,61.00
2019-06-26T04:42:00.447Z,60.00
2019-06-26T04:44:29.552Z,59.90
2019-06-26T04:47:17.872Z,60.30
2019-06-26T04:52:25.688Z,61.40
2019-06-26T04:54:54.746Z,61.00
2019-06-26T04:57:23.476Z,62.20
2019-06-26T04:59:52.791Z,61.60
2019-06-26T05:02:40.848Z,60.60
2019-06-26T05:05:35.456Z,59.70
2019-06-26T05:08:05.775Z,60.10
2019-06-26T05:10:47.280Z,60.50
2019-06-26T05:13:28.668Z,61.60
2019-06-26T05:16:14.919Z,62.00
2019-06-26T05:18:40.537Z,61.70
2019-06-26T05:21:28.658Z,61.70
2019-06-26T05:24:16.783Z,60.30
2019-06-26T05:26:46.054Z,62.40
2019-06-26T05:29:15.128Z,60.80
2019-06-26T05:32:03.432Z,60.60
2019-06-26T05:34:51.820Z,59.80
2019-06-26T05:37:39.859Z,61.40
2019-06-26T05:40:09.317Z,60.20
2019-06-26T05:42:58.219Z,59.20
2019-06-26T05:45:27.271Z,60.10
2019-06-26T05:48:15.620Z,59.60
2019-06-26T05:50:44.754Z,59.70
2019-06-26T05:53:34.294Z,60.80
2019-06-26T05:56:03.500Z,60.80
2019-06-26T05:58:32.218Z,60.80
2019-06-26T06:01:01.572Z,62.60
2019-06-26T06:03:30.719Z,61.70
2019-06-26T06:05:59.549Z,60.60
2019-06-26T06:08:48.003Z,59.50
2019-06-26T06:11:16.951Z,57.80
2019-06-26T06:13:46.295Z,57.30
2019-06-26T06:16:15.331Z,56.80
2019-06-26T06:19:03.707Z,57.50
2019-06-26T06:21:32.540Z,58.00
2019-06-26T06:24:01.406Z,58.50
2019-06-26T06:26:33.253Z,57.90
2019-06-26T06:29:02.195Z,58.00
2019-06-26T06:31:50.603Z,59.00
2019-06-26T06:34:22.460Z,59.30
2019-06-26T06:36:51.234Z,61.20
2019-06-26T06:39:39.347Z,62.30
2019-06-26T06:42:08.301Z,59.80
2019-06-26T06:44:37.777Z,59.10
2019-06-26T06:47:08.865Z,58.20
2019-06-26T06:49:37.100Z,58.00
2019-06-26T06:52:06.126Z,56.90
2019-06-26T06:54:35.364Z,57.00
2019-06-26T06:57:04.339Z,56.50
2019-06-26T06:59:33.759Z,55.80
2019-06-26T07:02:02.807Z,55.90
2019-06-26T07:04:31.665Z,54.40
2019-06-26T07:07:12.469Z,53.80
2019-06-26T07:09:41.712Z,55.50
2019-06-26T07:12:30.009Z,55.30
2019-06-26T07:15:01.465Z,55.30
2019-06-26T07:17:49.790Z,55.00
2019-06-26T07:20:22.879Z,54.20
2019-06-26T07:22:51.607Z,53.40
2019-06-26T07:25:20.383Z,52.80
2019-06-26T07:27:49.136Z,52.60
2019-06-26T07:30:17.908Z,52.70
2019-06-26T07:32:47.391Z,53.40
2019-06-26T07:35:16.202Z,54.80
2019-06-26T07:37:45.172Z,54.50
2019-06-26T07:40:14.150Z,53.50
2019-06-26T07:43:02.786Z,52.50
2019-06-26T07:45:31.522Z,51.30
2019-06-26T07:48:19.609Z,50.60
2019-06-26T07:51:07.888Z,49.90
2019-06-26T07:53:56.009Z,49.40
2019-06-26T07:56:24.818Z,48.90
2019-06-26T07:59:15.286Z,48.60
2019-06-26T08:02:03.264Z,48.20
2019-06-26T08:04:32.275Z,47.80
2019-06-26T08:07:01.366Z,47.50
2019-06-26T08:09:30.722Z,47.20
2019-06-26T08:11:59.826Z,47.00
2019-06-26T08:14:48.079Z,46.80
2019-06-26T08:17:17.689Z,46.40
2019-06-26T08:20:06.091Z,46.20
2019-06-26T08:22:54.322Z,45.80
2019-06-26T08:25:42.433Z,45.60
2019-06-26T08:28:11.350Z,45.30
2019-06-26T08:30:59.712Z,45.00
2019-06-26T08:33:48.059Z,44.80
2019-06-26T08:36:17.365Z,44.60
2019-06-26T08:39:06.281Z,44.20
2019-06-26T08:41:35.514Z,43.90
2019-06-26T08:44:04.593Z,43.60
2019-06-26T08:46:52.628Z,43.40
2019-06-26T08:49:25.906Z,43.20
2019-06-26T08:52:12.283Z,43.00
2019-06-26T08:55:00.919Z,42.70
2019-06-26T08:57:49.455Z,42.50
2019-06-26T09:00:18.571Z,42.20
2019-06-26T09:02:47.563Z,41.90
2019-06-26T09:05:16.763Z,41.70
2019-06-26T09:07:45.733Z,41.50
2019-06-26T09:10:14.416Z,41.40
2019-06-26T09:12:43.135Z,41.20
2019-06-26T09:15:12.103Z,40.90
2019-06-26T09:17:41.106Z,40.70
2019-06-26T09:20:09.824Z,40.40
2019-06-26T09:22:57.822Z,40.20
2019-06-26T09:25:27.067Z,39.90
2019-06-26T09:27:56.068Z,39.70
2019-06-26T09:30:25.235Z,39.50
2019-06-26T09:32:54.203Z,39.30
2019-06-26T09:35:42.731Z,39.00
2019-06-26T09:44:05.935Z,37.60
2019-06-26T09:49:22.482Z,38.40
2019-06-26T09:51:51.844Z,37.70
2019-06-26T09:54:20.601Z,37.50
2019-06-26T09:56:49.894Z,37.20
2019-06-26T09:59:37.907Z,37.00
2019-06-26T10:02:25.945Z,36.80
2019-06-26T10:04:54.753Z,36.60
2019-06-26T10:07:35.655Z,36.40
2019-06-26T10:10:04.945Z,36.10
2019-06-26T10:12:52.935Z,36.00
2019-06-26T10:15:41.216Z,35.80
2019-06-26T10:18:10.497Z,36.20
2019-06-26T10:20:59.320Z,35.40
2019-06-26T10:23:28.272Z,35.30
2019-06-26T10:25:57.485Z,35.10
2019-06-26T10:28:26.863Z,34.90
2019-06-26T10:31:18.349Z,34.80
2019-06-26T10:33:46.027Z,34.60
2019-06-26T10:36:15.311Z,34.40
2019-06-26T10:39:03.728Z,34.20
2019-06-26T10:41:54.856Z,34.00
2019-06-26T10:44:22.261Z,33.90
2019-06-26T10:47:10.709Z,33.70
2019-06-26T10:49:39.595Z,33.50
2019-06-26T10:52:08.649Z,33.20
2019-06-26T10:54:37.398Z,33.00
2019-06-26T10:57:25.941Z,32.90
2019-06-26T11:00:14.290Z,32.70
2019-06-26T11:03:02.591Z,32.60
2019-06-26T11:05:31.387Z,32.50
2019-06-26T11:08:12.695Z,32.40
2019-06-26T11:10:41.733Z,32.40
2019-06-26T11:13:10.844Z,32.20
2019-06-26T11:15:40.431Z,32.10
2019-06-26T11:18:28.472Z,31.90
2019-06-26T11:21:16.570Z,31.70
2019-06-26T11:26:33.411Z,31.40
2019-06-26T11:29:02.910Z,31.50
2019-06-26T11:31:31.968Z,31.50
2019-06-26T11:34:20.032Z,31.40
2019-06-26T11:37:02.773Z,31.20
2019-06-26T11:39:40.214Z,31.00
2019-06-26T11:42:09.082Z,31.00
2019-06-26T11:44:38.085Z,30.70
2019-06-26T11:47:26.487Z,30.60
2019-06-26T11:50:14.506Z,30.40
2019-06-26T11:53:02.659Z,30.30
2019-06-26T11:55:31.378Z,30.20
2019-06-26T11:58:00.116Z,30.10
2019-06-26T12:00:48.324Z,30.40
2019-06-26T12:03:36.681Z,30.30
2019-06-26T12:06:24.831Z,30.30
2019-06-26T12:08:53.637Z,30.50
2019-06-26T12:11:41.731Z,30.60
2019-06-26T12:14:10.577Z,30.60
2019-06-26T12:16:39.318Z,30.30
2019-06-26T12:19:27.511Z,30.20
2019-06-26T12:21:56.470Z,30.00
2019-06-26T12:24:44.765Z,29.90
2019-06-26T12:27:14.169Z,30.40
2019-06-26T12:29:42.962Z,29.80
2019-06-26T12:32:30.962Z,29.70
2019-06-26T12:34:59.687Z,29.70
2019-06-26T12:37:48.062Z,29.60
2019-06-26T12:40:17.016Z,29.60
2019-06-26T12:42:46.033Z,29.50
2019-06-26T12:45:34.055Z,29.60
2019-06-26T12:48:03.097Z,29.40
2019-06-26T12:50:36.011Z,29.30
2019-06-26T12:53:02.675Z,29.30
2019-06-26T12:55:33.053Z,29.30
2019-06-26T12:58:12.587Z,29.30
2019-06-26T13:00:32.755Z,29.30
2019-06-26T13:03:02.128Z,29.30
2019-06-26T13:05:50.349Z,29.30
2019-06-26T13:08:31.001Z,29.30
2019-06-26T13:10:59.855Z,29.30
2019-06-26T13:14:01.508Z,29.40
2019-06-26T13:16:18.840Z,29.40
2019-06-26T13:18:48.111Z,29.40
2019-06-26T13:21:36.113Z,29.40
2019-06-26T13:24:24.434Z,29.50
2019-06-26T13:27:12.771Z,29.40
2019-06-26T13:30:01.140Z,29.40
2019-06-26T13:32:49.231Z,29.50
2019-06-26T13:35:37.295Z,29.50
2019-06-26T13:38:27.182Z,29.60
2019-06-26T13:40:55.914Z,29.60
2019-06-26T13:43:24.742Z,29.60
2019-06-26T13:46:12.819Z,29.50
2019-06-26T13:48:41.489Z,29.50
2019-06-26T13:51:10.551Z,29.60
2019-06-26T13:53:58.548Z,29.60
2019-06-26T13:56:46.558Z,29.70
2019-06-26T13:59:15.245Z,29.70
2019-06-26T14:01:43.937Z,29.70
2019-06-26T14:04:12.697Z,29.80
2019-06-26T14:07:00.995Z,29.80
2019-06-26T14:09:29.727Z,29.80
2019-06-26T14:12:19.235Z,29.90
2019-06-26T14:14:57.529Z,30.00
2019-06-26T14:17:38.082Z,30.00
2019-06-26T14:20:26.228Z,30.00
2019-06-26T14:23:14.287Z,30.10
2019-06-26T14:25:43.864Z,30.10
2019-06-26T14:28:31.841Z,30.20
2019-06-26T14:31:00.511Z,30.30
2019-06-26T14:33:51.223Z,30.40
2019-06-26T14:36:23.151Z,30.50
2019-06-26T14:38:50.595Z,30.40
2019-06-26T14:41:19.875Z,30.70
2019-06-26T14:44:08.195Z,30.70
2019-06-26T14:46:38.078Z,30.80
2019-06-26T14:49:06.907Z,31.00
2019-06-26T14:51:43.939Z,31.20
2019-06-26T14:54:06.864Z,31.40
2019-06-26T14:56:54.850Z,31.50
2019-06-26T14:59:25.994Z,31.60
2019-06-26T15:01:54.718Z,31.70
2019-06-26T15:04:23.409Z,32.00
2019-06-26T15:06:52.522Z,32.10
2019-06-26T15:09:21.823Z,32.20
2019-06-26T15:12:10.478Z,32.20
2019-06-26T15:14:58.541Z,32.40
2019-06-26T15:17:47.107Z,32.50
2019-06-26T15:20:17.121Z,32.70
2019-06-26T15:22:46.343Z,32.80
2019-06-26T15:25:34.584Z,33.10
2019-06-26T15:28:03.630Z,33.10
2019-06-26T15:30:32.984Z,33.20
2019-06-26T15:33:23.223Z,33.40
2019-06-26T15:35:53.898Z,33.40
2019-06-26T15:38:22.695Z,33.60
2019-06-26T15:41:11.068Z,33.60
2019-06-26T15:43:40.163Z,33.70
2019-06-26T15:46:28.479Z,33.90
2019-06-26T15:48:58.157Z,33.90
2019-06-26T15:51:27.079Z,34.00
2019-06-26T15:53:59.779Z,34.10
2019-06-26T15:56:27.846Z,34.20
2019-06-26T15:58:57.617Z,34.20
2019-06-26T16:01:45.710Z,34.40
2019-06-26T16:04:14.723Z,34.40
2019-06-26T16:09:17.827Z,34.80
2019-06-26T16:12:05.852Z,34.70
2019-06-26T16:14:34.735Z,34.70
2019-06-26T16:19:42.607Z,35.00
2019-06-26T16:22:32.637Z,35.10
2019-06-26T16:25:01.070Z,35.10
2019-06-26T16:27:29.807Z,35.30
2019-06-26T16:29:58.540Z,35.30
2019-06-26T16:32:27.410Z,35.40
2019-06-26T16:34:56.152Z,35.60
2019-06-26T16:37:24.907Z,35.70
2019-06-26T16:39:53.887Z,35.90
2019-06-26T16:42:23.015Z,35.90
2019-06-26T16:44:51.718Z,36.10
2019-06-26T16:47:39.865Z,36.10
2019-06-26T16:50:08.544Z,36.20
2019-06-26T16:52:48.625Z,36.30
2019-06-26T16:55:07.728Z,36.40
2019-06-26T16:57:36.383Z,36.60
2019-06-26T17:00:35.506Z,36.60
2019-06-26T17:03:04.656Z,36.70
2019-06-26T17:05:33.918Z,36.80
2019-06-26T17:08:03.021Z,36.90
2019-06-26T17:10:31.723Z,37.00
2019-06-26T17:13:19.876Z,37.10
2019-06-26T17:16:07.937Z,37.20
2019-06-26T17:18:36.820Z,37.20
2019-06-26T17:21:25.044Z,37.40
2019-06-26T17:24:13.089Z,37.40
2019-06-26T17:26:42.327Z,37.50
2019-06-26T17:29:11.761Z,37.80
2019-06-26T17:32:00.275Z,37.80
2019-06-26T17:34:29.489Z,37.90
2019-06-26T17:36:58.713Z,38.10
2019-06-26T17:39:28.268Z,38.10
2019-06-26T17:41:57.267Z,38.20
2019-06-26T17:44:26.287Z,38.20
2019-06-26T17:46:55.430Z,38.30
2019-06-26T17:49:43.678Z,38.50
2019-06-26T17:52:35.553Z,38.60
2019-06-26T17:55:03.247Z,38.70
2019-06-26T17:57:32.306Z,38.90
2019-06-26T18:00:01.008Z,38.90
2019-06-26T18:02:30.291Z,39.00
2019-06-26T18:04:59.601Z,39.10
2019-06-26T18:07:28.894Z,39.20
2019-06-26T18:10:09.447Z,39.30
2019-06-26T18:12:38.151Z,39.30
2019-06-26T18:15:26.133Z,39.50
2019-06-26T18:18:14.500Z,39.50
2019-06-26T18:20:43.724Z,39.70
2019-06-26T18:23:37.686Z,39.90
2019-06-26T18:26:21.678Z,40.00
2019-06-26T18:29:10.008Z,40.00
2019-06-26T18:31:57.964Z,40.10
2019-06-26T18:34:27.206Z,40.20
2019-06-26T18:37:15.750Z,40.30
2019-06-26T18:40:03.778Z,40.40
2019-06-26T18:42:32.583Z,40.60
2019-06-26T18:45:01.325Z,40.60
2019-06-26T18:47:49.948Z,40.70
2019-06-26T18:50:18.979Z,40.80
2019-06-26T18:53:07.283Z,40.90
2019-06-26T18:55:36.677Z,41.00
2019-06-26T18:58:05.664Z,41.10
2019-06-26T19:00:34.717Z,41.10
2019-06-26T19:03:04.047Z,41.20
2019-06-26T19:05:52.380Z,41.40
2019-06-26T19:08:40.652Z,42.10
2019-06-26T19:11:09.412Z,41.40
2019-06-26T19:13:57.459Z,41.50
2019-06-26T19:16:45.896Z,41.60
2019-06-26T19:19:33.849Z,41.80
2019-06-26T19:22:03.100Z,41.80
2019-06-26T19:24:53.119Z,42.00
2019-06-26T19:27:41.157Z,42.00
2019-06-26T19:30:29.458Z,42.00
2019-06-26T19:32:58.968Z,42.10
2019-06-26T19:35:47.253Z,42.10
2019-06-26T19:38:16.427Z,42.40
2019-06-26T19:40:45.183Z,42.50
2019-06-26T19:43:33.202Z,42.50
2019-06-26T19:46:01.925Z,42.50
2019-06-26T19:48:49.978Z,42.40
2019-06-26T19:51:19.442Z,42.50
2019-06-26T19:53:48.643Z,42.70
2019-06-26T19:56:20.092Z,42.80
2019-06-26T19:58:47.738Z,42.80
2019-06-26T20:01:16.524Z,42.80
2019-06-26T20:03:46.034Z,42.90
2019-06-26T20:06:14.872Z,43.00
2019-06-26T20:08:54.420Z,43.00
2019-06-26T20:11:26.343Z,43.00
2019-06-26T20:14:07.386Z,43.00
2019-06-26T20:16:36.020Z,43.20
2019-06-26T20:19:24.368Z,43.40
2019-06-26T20:21:53.858Z,43.40
2019-06-26T20:24:22.533Z,43.50
2019-06-26T20:26:51.259Z,43.50
2019-06-26T20:29:39.542Z,43.50
2019-06-26T20:32:08.290Z,43.60
2019-06-26T20:34:37.028Z,43.60
2019-06-26T20:37:06.039Z,43.60
2019-06-26T20:39:35.527Z,43.70
2019-06-26T20:42:04.233Z,43.70
2019-06-26T20:44:33.438Z,43.80
2019-06-26T20:47:02.187Z,43.80
2019-06-26T20:49:30.873Z,43.90
2019-06-26T20:51:59.515Z,44.00
2019-06-26T20:55:00.489Z,44.00
2019-06-26T20:57:19.509Z,44.10
2019-06-26T20:59:48.697Z,44.10
2019-06-26T21:02:17.660Z,44.10
2019-06-26T21:05:06.069Z,44.20
2019-06-26T21:07:54.715Z,44.30
2019-06-26T21:10:36.182Z,44.30
2019-06-26T21:13:05.207Z,44.30
2019-06-26T21:15:34.704Z,44.50
2019-06-26T21:18:22.987Z,44.60
2019-06-26T21:21:11.528Z,44.60
2019-06-26T21:23:40.775Z,44.60
2019-06-26T21:26:09.899Z,44.60
2019-06-26T21:28:39.086Z,44.70
2019-06-26T21:31:07.820Z,44.80
2019-06-26T21:33:36.865Z,44.80
2019-06-26T21:36:05.671Z,44.80
2019-06-26T21:38:34.435Z,44.80
2019-06-26T21:41:03.190Z,44.90
2019-06-26T21:43:32.179Z,45.00
2019-06-26T21:46:01.071Z,45.10
2019-06-26T21:48:30.192Z,45.20
2019-06-26T21:50:59.226Z,47.00
2019-06-26T21:53:28.049Z,46.00
2019-06-26T21:55:56.827Z,44.80
2019-06-26T21:58:25.642Z,44.00
2019-06-26T22:00:54.603Z,43.80
2019-06-26T22:03:23.424Z,43.50
2019-06-26T22:05:52.140Z,43.20
2019-06-26T22:08:20.965Z,42.80
2019-06-26T22:11:02.719Z,42.50
2019-06-26T22:13:31.655Z,42.30
2019-06-26T22:16:00.767Z,42.30
2019-06-26T22:18:29.746Z,42.10
2019-06-26T22:20:58.711Z,42.00
2019-06-26T22:23:27.474Z,42.00
2019-06-26T22:25:56.272Z,41.60
2019-06-26T22:28:25.043Z,41.80
2019-06-26T22:30:53.747Z,41.60
2019-06-26T22:33:22.519Z,41.40
2019-06-26T22:35:51.223Z,41.30
2019-06-26T22:38:20.076Z,41.40
2019-06-26T22:40:48.839Z,41.20
2019-06-26T22:43:36.870Z,41.00
2019-06-26T22:46:05.775Z,41.00
2019-06-26T22:48:34.801Z,41.00
2019-06-26T22:51:03.677Z,40.80
2019-06-26T22:53:32.919Z,40.70
2019-06-26T22:56:07.622Z,40.80
2019-06-26T22:58:51.815Z,40.50
2019-06-26T23:01:24.716Z,40.60
2019-06-26T23:07:04.923Z,40.30
2019-06-26T23:09:53.292Z,40.10
2019-06-26T23:12:41.780Z,40.10
2019-06-26T23:15:10.743Z,40.20
2019-06-26T23:17:39.976Z,40.30
2019-06-26T23:20:09.204Z,40.70
2019-06-26T23:22:57.819Z,40.80
2019-06-26T23:25:26.589Z,40.90
2019-06-26T23:27:55.340Z,41.10
2019-06-26T23:30:43.396Z,41.20
2019-06-26T23:33:31.417Z,40.60
2019-06-26T23:36:19.597Z,40.00
2019-06-26T23:38:48.348Z,39.20
2019-06-26T23:41:36.435Z,39.10
2019-06-26T23:44:24.580Z,38.20
2019-06-26T23:50:08.354Z,38.40
2019-06-26T23:52:56.521Z,38.10
2019-06-26T23:55:44.837Z,37.80
2019-06-26T23:58:13.666Z,38.30
